Terminal Aerodrome Forecast
Issued by NWS

Home | Current Version | Previous Version | Text Only | Print | Product List | Glossary On
Versions: 1 2 3 4 5 6 7 8 9 10 11 12 13 14 15 16 17 18 19 20 21 22 23 24 25 26 27 28
000
FTUS44 KOUN 262126 AAA
TAFHBR
TAF AMD
KHBR 262126Z 2621/2718 08013G18KT P6SM SCT035 BKN110
      TEMPO 2621/2623 6SM -RA BKN030 OVC060
     FM262300 10015G23KT P6SM BKN035
      TEMPO 2623/2702 2SM TSRA BR BKN030CB
     FM270200 07015G24KT 4SM TSRA BR OVC030CB
      TEMPO 2702/2706 1SM TSRA BR OVC012CB
     FM270600 04016G24KT 3SM -TSRA BR OVC012CB
     FM271200 05014G23KT 5SM RA OVC015=

USA.gov is the U.S. government's official web portal to all federal, state and local government web resources and services.